createdAt,value
2022-11-03T00:01:41.764Z,2.92
2022-11-03T00:04:11.287Z,3.38
2022-11-03T00:06:38.917Z,3.85
2022-11-03T00:09:11.225Z,2.83
2022-11-03T00:14:06.435Z,2.38
2022-11-03T00:16:33.158Z,1.90
2022-11-03T00:18:59.759Z,2.75
2022-11-03T00:21:26.633Z,2.83
2022-11-03T00:23:53.939Z,2.35
2022-11-03T00:26:28.263Z,2.47
2022-11-03T00:29:00.675Z,3.45
2022-11-03T00:31:32.963Z,1.77
2022-11-03T00:34:00.804Z,1.83
2022-11-03T00:36:33.465Z,3.40
2022-11-03T00:39:00.295Z,2.42
2022-11-03T00:41:27.238Z,3.10
2022-11-03T00:43:54.472Z,2.80
2022-11-03T00:46:22.517Z,2.53
2022-11-03T00:48:49.668Z,4.38
2022-11-03T00:51:22.160Z,3.13
2022-11-03T00:53:52.246Z,4.72
2022-11-03T00:56:23.317Z,2.78
2022-11-03T00:58:51.199Z,2.85
2022-11-03T01:01:23.069Z,3.03
2022-11-03T01:04:11.540Z,2.53
2022-11-03T01:06:55.325Z,2.80
2022-11-03T01:09:30.912Z,2.58
2022-11-03T01:12:18.439Z,2.88
2022-11-03T01:14:48.080Z,2.95
2022-11-03T01:17:20.416Z,2.63
2022-11-03T01:22:15.001Z,3.42
2022-11-03T01:24:42.876Z,2.63
2022-11-03T01:27:11.089Z,3.80
2022-11-03T01:29:37.861Z,4.03
2022-11-03T01:32:04.961Z,4.13
2022-11-03T01:34:31.817Z,3.53
2022-11-03T01:36:58.378Z,2.13
2022-11-03T01:39:24.994Z,2.25
2022-11-03T01:41:52.431Z,3.30
2022-11-03T01:44:18.999Z,3.08
2022-11-03T01:47:22.600Z,2.97
2022-11-03T01:50:01.778Z,2.53
2022-11-03T01:52:38.292Z,2.85
2022-11-03T01:55:08.965Z,2.83
2022-11-03T01:57:43.522Z,2.75
2022-11-03T02:00:11.033Z,2.15
2022-11-03T02:02:37.740Z,2.15
2022-11-03T02:05:06.157Z,2.85
2022-11-03T02:07:44.415Z,3.05
2022-11-03T02:10:11.341Z,3.10
2022-11-03T02:12:38.180Z,2.72
2022-11-03T02:15:09.552Z,2.45
2022-11-03T02:17:38.405Z,2.67
2022-11-03T02:20:11.308Z,2.95
2022-11-03T02:22:53.412Z,2.63
2022-11-03T02:25:35.361Z,1.45
2022-11-03T02:28:03.215Z,3.17
2022-11-03T02:30:53.348Z,2.00
2022-11-03T02:33:53.745Z,3.20
2022-11-03T02:36:26.177Z,1.80
2022-11-03T02:41:24.364Z,3.17
2022-11-03T02:43:52.380Z,2.13
2022-11-03T02:46:19.680Z,3.03
2022-11-03T02:48:48.009Z,2.38
2022-11-03T02:51:14.592Z,5.63
2022-11-03T02:54:00.607Z,2.60
2022-11-03T02:56:30.020Z,2.65
2022-11-03T02:58:56.724Z,3.85
2022-11-03T03:01:37.214Z,2.67
2022-11-03T03:04:09.152Z,2.85
2022-11-03T03:06:54.681Z,2.47
2022-11-03T03:09:28.569Z,2.60
2022-11-03T03:11:58.448Z,4.03
2022-11-03T03:14:31.836Z,2.67
2022-11-03T03:17:07.533Z,3.00
2022-11-03T03:20:24.282Z,2.13
2022-11-03T03:22:58.511Z,2.97
2022-11-03T03:25:46.721Z,2.45
2022-11-03T03:28:19.160Z,2.95
2022-11-03T03:30:47.271Z,4.60
2022-11-03T03:33:15.885Z,4.10
2022-11-03T03:35:46.922Z,3.33
2022-11-03T03:38:27.446Z,4.05
2022-11-03T03:40:56.675Z,4.03
2022-11-03T03:43:25.680Z,2.17
2022-11-03T03:45:55.395Z,2.60
2022-11-03T03:48:22.568Z,4.45
2022-11-03T03:50:50.634Z,2.38
2022-11-03T03:53:19.316Z,2.30
2022-11-03T03:55:50.868Z,3.05
2022-11-03T03:58:18.098Z,2.78
2022-11-03T04:00:45.151Z,2.75
2022-11-03T04:03:18.012Z,3.00
2022-11-03T04:05:45.195Z,2.33
2022-11-03T04:08:13.557Z,2.97
2022-11-03T04:10:40.388Z,4.22
2022-11-03T04:13:27.184Z,3.35
2022-11-03T04:16:12.872Z,4.05
2022-11-03T04:18:58.337Z,3.85
2022-11-03T04:21:43.954Z,2.88
2022-11-03T04:24:10.783Z,3.13
2022-11-03T04:26:37.429Z,2.90
2022-11-03T04:29:07.068Z,2.75
2022-11-03T04:31:36.344Z,2.65
2022-11-03T04:34:10.188Z,3.65
2022-11-03T04:36:36.760Z,2.95
2022-11-03T04:39:15.699Z,3.05
2022-11-03T04:41:42.722Z,2.47
2022-11-03T04:44:15.011Z,2.97
2022-11-03T04:46:41.791Z,3.40
2022-11-03T04:49:14.572Z,3.25
2022-11-03T04:51:41.481Z,4.00
2022-11-03T04:54:18.899Z,3.05
2022-11-03T04:56:45.567Z,3.45
2022-11-03T04:59:14.216Z,3.67
2022-11-03T05:01:42.640Z,3.25
2022-11-03T05:04:14.858Z,2.78
2022-11-03T05:06:44.800Z,4.10
2022-11-03T05:09:18.623Z,3.55
2022-11-03T05:11:46.411Z,4.10
2022-11-03T05:14:20.603Z,3.78
2022-11-03T05:16:48.471Z,3.45
2022-11-03T05:19:24.077Z,3.53
2022-11-03T05:21:52.714Z,3.10
2022-11-03T05:24:21.806Z,3.58
2022-11-03T05:26:49.543Z,3.47
2022-11-03T05:29:20.526Z,3.97
2022-11-03T05:31:49.270Z,3.28
2022-11-03T05:34:30.977Z,2.67
2022-11-03T05:37:28.232Z,2.08
2022-11-03T05:40:01.053Z,3.50
2022-11-03T05:42:37.833Z,3.42
2022-11-03T05:45:21.375Z,4.60
2022-11-03T05:47:53.425Z,2.15
2022-11-03T05:50:21.487Z,3.78
2022-11-03T05:52:51.339Z,3.10
2022-11-03T05:55:30.503Z,3.95
2022-11-03T05:58:05.569Z,2.30
2022-11-03T06:00:37.369Z,4.40
2022-11-03T06:03:06.168Z,3.47
2022-11-03T06:05:34.304Z,3.72
2022-11-03T06:08:04.023Z,1.92
2022-11-03T06:10:41.850Z,3.67
2022-11-03T06:13:16.587Z,4.68
2022-11-03T06:15:46.498Z,2.45
2022-11-03T06:18:16.701Z,3.35
2022-11-03T06:20:52.110Z,3.92
2022-11-03T06:23:20.108Z,3.28
2022-11-03T06:25:47.035Z,2.75
2022-11-03T06:28:31.435Z,3.38
2022-11-03T06:30:58.156Z,3.08
2022-11-03T06:33:29.988Z,2.78
2022-11-03T06:36:05.978Z,3.55
2022-11-03T06:38:35.333Z,3.53
2022-11-03T06:41:01.970Z,3.15
2022-11-03T06:43:39.649Z,3.45
2022-11-03T06:46:14.812Z,3.10
2022-11-03T06:48:41.569Z,3.08
2022-11-03T06:51:18.002Z,3.97
2022-11-03T06:53:44.747Z,4.32
2022-11-03T06:56:25.018Z,2.78
2022-11-03T06:58:54.255Z,2.38
2022-11-03T07:01:31.395Z,3.40
2022-11-03T07:04:02.317Z,4.30
2022-11-03T07:06:35.776Z,3.15
2022-11-03T07:09:05.960Z,2.55
2022-11-03T07:11:44.816Z,3.78
2022-11-03T07:14:20.030Z,6.55
2022-11-03T07:16:48.307Z,4.85
2022-11-03T07:19:35.725Z,3.63
2022-11-03T07:22:10.117Z,2.67
2022-11-03T07:24:41.186Z,2.97
2022-11-03T07:27:19.712Z,4.18
2022-11-03T07:29:47.188Z,3.30
2022-11-03T07:32:19.689Z,2.78
2022-11-03T07:34:47.887Z,3.38
2022-11-03T07:37:20.832Z,3.80
2022-11-03T07:39:48.734Z,4.25
2022-11-03T07:42:33.424Z,2.35
2022-11-03T07:45:00.147Z,4.13
2022-11-03T07:47:28.855Z,2.60
2022-11-03T07:49:56.454Z,3.15
2022-11-03T07:52:25.734Z,4.13
2022-11-03T07:54:56.846Z,3.75
2022-11-03T07:57:26.909Z,3.58
2022-11-03T08:00:10.627Z,3.65
2022-11-03T08:02:48.896Z,2.70
2022-11-03T08:05:15.738Z,5.25
2022-11-03T08:07:42.440Z,3.70
2022-11-03T08:10:09.595Z,3.00
2022-11-03T08:12:36.168Z,2.95
2022-11-03T08:15:02.850Z,2.65
2022-11-03T08:17:29.433Z,3.80
2022-11-03T08:19:56.042Z,2.70
2022-11-03T08:22:25.759Z,3.20
2022-11-03T08:24:52.959Z,3.80
2022-11-03T08:27:19.680Z,4.18
2022-11-03T08:29:46.321Z,3.00
2022-11-03T08:32:12.876Z,3.22
2022-11-03T08:34:39.509Z,3.45
2022-11-03T08:37:06.172Z,3.45
2022-11-03T08:39:32.958Z,2.58
2022-11-03T08:41:59.532Z,5.43
2022-11-03T08:44:26.266Z,2.72
2022-11-03T08:46:52.864Z,2.83
2022-11-03T08:49:19.452Z,2.28
2022-11-03T08:51:46.025Z,3.60
2022-11-03T08:54:12.617Z,3.30
2022-11-03T08:56:39.290Z,2.53
2022-11-03T08:59:05.931Z,3.88
2022-11-03T09:01:32.498Z,2.92
2022-11-03T09:03:59.784Z,3.25
2022-11-03T09:06:26.412Z,2.10
2022-11-03T09:11:39.689Z,2.63
2022-11-03T09:14:06.280Z,3.60
2022-11-03T09:16:32.885Z,3.47
2022-11-03T09:18:59.509Z,2.65
2022-11-03T09:21:26.225Z,2.85
2022-11-03T09:23:52.865Z,2.97
2022-11-03T09:26:20.370Z,2.70
2022-11-03T09:28:47.255Z,2.25
2022-11-03T09:31:13.847Z,2.38
2022-11-03T09:33:40.576Z,1.67
2022-11-03T09:36:07.506Z,3.17
2022-11-03T09:38:34.108Z,3.65
2022-11-03T09:41:02.125Z,4.10
2022-11-03T09:43:28.917Z,3.17
2022-11-03T09:45:55.535Z,3.05
2022-11-03T09:48:22.298Z,4.05
2022-11-03T09:50:53.247Z,3.60
2022-11-03T09:53:21.573Z,3.53
2022-11-03T09:55:48.544Z,3.45
2022-11-03T09:58:17.386Z,3.17
2022-11-03T10:00:44.906Z,3.05
2022-11-03T10:03:17.824Z,3.58
2022-11-03T10:05:45.980Z,2.38
2022-11-03T10:08:35.289Z,3.25
2022-11-03T10:11:02.724Z,3.65
2022-11-03T10:13:33.458Z,5.05
2022-11-03T10:16:03.257Z,3.10
2022-11-03T10:18:29.883Z,3.70
2022-11-03T10:21:01.359Z,3.28
2022-11-03T10:23:27.980Z,4.37
2022-11-03T10:26:10.405Z,3.85
2022-11-03T10:28:37.586Z,2.30
2022-11-03T10:31:11.105Z,4.05
2022-11-03T10:33:57.963Z,3.05
2022-11-03T10:36:29.904Z,1.52
2022-11-03T10:38:56.936Z,3.08
2022-11-03T10:41:27.564Z,3.05
2022-11-03T10:44:12.264Z,3.17
2022-11-03T10:46:55.794Z,2.47
2022-11-03T10:49:22.871Z,3.63
2022-11-03T10:51:54.558Z,2.92
2022-11-03T10:54:23.412Z,3.58
2022-11-03T10:56:51.694Z,2.10
2022-11-03T10:59:27.268Z,3.10
2022-11-03T11:01:54.259Z,3.05
2022-11-03T11:04:23.899Z,3.13
2022-11-03T11:06:51.364Z,3.00
2022-11-03T11:09:27.335Z,3.67
2022-11-03T11:12:15.505Z,3.50
2022-11-03T11:14:59.370Z,4.47
2022-11-03T11:17:42.420Z,2.90
2022-11-03T11:20:18.768Z,2.80
2022-11-03T11:22:45.822Z,2.22
2022-11-03T11:25:12.724Z,2.25
2022-11-03T11:27:39.305Z,3.40
2022-11-03T11:30:27.230Z,2.67
2022-11-03T11:33:01.431Z,1.92
2022-11-03T11:35:28.040Z,3.00
2022-11-03T11:37:54.913Z,3.42
2022-11-03T11:40:24.599Z,3.25
2022-11-03T11:43:04.266Z,2.58
2022-11-03T11:46:08.693Z,2.78
2022-11-03T11:48:36.132Z,3.92
2022-11-03T11:51:03.838Z,2.72
2022-11-03T11:53:50.969Z,2.78
2022-11-03T11:56:22.654Z,2.30
2022-11-03T11:58:53.871Z,3.67
2022-11-03T12:01:34.314Z,2.47
2022-11-03T12:04:06.569Z,2.92
2022-11-03T12:06:37.818Z,3.13
2022-11-03T12:09:21.612Z,3.58
2022-11-03T12:11:56.279Z,5.50
2022-11-03T12:14:28.867Z,2.30
2022-11-03T12:19:43.909Z,2.30
2022-11-03T12:22:29.037Z,3.25
2022-11-03T12:25:00.728Z,2.47
2022-11-03T12:27:27.287Z,3.30
2022-11-03T12:29:55.720Z,3.22
2022-11-03T12:32:33.978Z,3.08
2022-11-03T12:35:05.753Z,3.72
2022-11-03T12:37:32.412Z,3.22
2022-11-03T12:39:59.133Z,3.80
2022-11-03T12:42:26.001Z,3.25
2022-11-03T12:44:53.007Z,3.72
2022-11-03T12:47:20.240Z,3.25
2022-11-03T12:49:46.867Z,2.47
2022-11-03T12:52:13.459Z,4.00
2022-11-03T12:54:40.065Z,3.97
2022-11-03T12:57:06.825Z,4.20
2022-11-03T12:59:33.433Z,2.97
2022-11-03T13:02:00.171Z,3.38
2022-11-03T13:04:26.901Z,2.83
2022-11-03T13:06:53.546Z,4.13
2022-11-03T13:09:20.132Z,2.20
2022-11-03T13:12:05.420Z,3.65
2022-11-03T13:14:32.012Z,4.28
2022-11-03T13:16:58.806Z,3.13
2022-11-03T13:19:25.413Z,3.45
2022-11-03T13:21:52.008Z,3.92
2022-11-03T13:24:18.594Z,3.63
2022-11-03T13:26:45.249Z,3.00
2022-11-03T13:29:11.864Z,3.90
2022-11-03T13:31:38.454Z,3.33
2022-11-03T13:34:05.089Z,3.03
2022-11-03T13:36:31.765Z,2.92
2022-11-03T13:38:58.485Z,3.60
2022-11-03T13:41:25.094Z,2.75
2022-11-03T13:43:51.741Z,3.63
2022-11-03T13:46:18.349Z,4.60
2022-11-03T13:51:31.659Z,3.80
2022-11-03T13:59:31.540Z,2.22
2022-11-03T14:04:45.089Z,5.20
2022-11-03T14:07:11.863Z,3.20
2022-11-03T14:09:38.804Z,3.40
2022-11-03T14:12:25.501Z,3.47
2022-11-03T14:14:52.115Z,3.42
2022-11-03T14:17:18.792Z,3.17
2022-11-03T14:19:50.413Z,3.97
2022-11-03T14:22:20.344Z,4.05
2022-11-03T14:24:47.166Z,4.88
2022-11-03T14:47:34.537Z,3.93
2022-11-03T14:50:01.130Z,6.45
2022-11-03T14:52:27.933Z,6.65
2022-11-03T14:54:54.861Z,10.88
2022-11-03T14:57:21.510Z,8.43
2022-11-03T14:59:53.208Z,10.63
2022-11-03T15:02:20.417Z,8.20
2022-11-03T15:04:47.249Z,4.85
2022-11-03T15:07:13.927Z,3.95
2022-11-03T15:09:40.634Z,6.32
2022-11-03T15:12:07.491Z,3.22
2022-11-03T15:14:34.124Z,2.58
2022-11-03T15:17:01.524Z,3.17
2022-11-03T15:19:28.168Z,3.65
2022-11-03T15:21:54.911Z,3.40
2022-11-03T15:27:08.081Z,4.57
2022-11-03T15:29:36.109Z,6.30
2022-11-03T15:32:02.899Z,7.07
2022-11-03T15:34:29.653Z,5.72
2022-11-03T15:36:56.317Z,4.93
2022-11-03T15:39:22.919Z,4.00
2022-11-03T15:41:49.513Z,5.35
2022-11-03T15:44:16.202Z,3.75
2022-11-03T15:46:42.929Z,4.50
2022-11-03T15:49:09.566Z,5.65
2022-11-03T15:51:36.184Z,3.38
2022-11-03T15:54:03.439Z,4.95
2022-11-03T15:56:30.437Z,4.88
2022-11-03T15:58:57.578Z,4.70
2022-11-03T16:01:24.359Z,5.38
2022-11-03T16:03:51.677Z,7.63
2022-11-03T16:06:18.330Z,5.20
2022-11-03T16:08:45.403Z,4.63
2022-11-03T16:11:12.542Z,4.13
2022-11-03T16:13:39.566Z,3.78
2022-11-03T16:16:06.964Z,4.35
2022-11-03T16:18:33.951Z,3.70
2022-11-03T16:21:00.986Z,4.45
2022-11-03T16:23:28.041Z,5.28
2022-11-03T16:25:55.190Z,4.65
2022-11-03T16:28:21.921Z,4.60
2022-11-03T16:30:54.083Z,4.35
2022-11-03T16:33:21.592Z,4.03
2022-11-03T16:35:48.476Z,6.05
2022-11-03T16:38:15.411Z,5.75
2022-11-03T16:40:42.786Z,6.32
2022-11-03T16:43:10.355Z,5.60
2022-11-03T16:45:38.218Z,5.82
2022-11-03T16:48:07.171Z,6.13
2022-11-03T16:50:34.599Z,4.15
2022-11-03T16:53:01.296Z,6.03
2022-11-03T16:55:28.250Z,5.90
2022-11-03T16:57:54.981Z,5.35
2022-11-03T17:00:21.718Z,4.18
2022-11-03T17:02:48.498Z,4.63
2022-11-03T17:05:17.352Z,3.80
2022-11-03T17:07:47.508Z,4.05
2022-11-03T17:10:18.657Z,3.45
2022-11-03T17:12:45.271Z,3.50
2022-11-03T17:15:11.860Z,4.55
2022-11-03T17:17:38.527Z,3.95
2022-11-03T17:20:06.387Z,4.63
2022-11-03T17:22:33.000Z,4.50
2022-11-03T17:24:59.659Z,4.82
2022-11-03T17:27:32.082Z,3.80
2022-11-03T17:32:40.552Z,3.65
2022-11-03T17:35:21.671Z,4.95
2022-11-03T17:37:49.599Z,5.15
2022-11-03T17:40:19.037Z,5.45
2022-11-03T17:42:45.985Z,4.45
2022-11-03T17:45:18.024Z,4.13
2022-11-03T17:47:44.901Z,5.63
2022-11-03T17:50:16.882Z,4.68
2022-11-03T17:52:48.289Z,5.45
2022-11-03T17:55:23.029Z,8.50
2022-11-03T17:57:49.950Z,4.53
2022-11-03T18:00:23.298Z,5.15
2022-11-03T18:02:51.459Z,4.32
2022-11-03T18:05:22.875Z,5.53
2022-11-03T18:07:50.760Z,4.23
2022-11-03T18:10:19.256Z,4.47
2022-11-03T18:13:06.352Z,6.03
2022-11-03T18:15:36.771Z,3.58
2022-11-03T18:18:12.486Z,4.70
2022-11-03T18:20:41.093Z,4.75
2022-11-03T18:23:23.095Z,3.28
2022-11-03T18:25:51.014Z,3.95
2022-11-03T18:28:18.647Z,5.75
2022-11-03T18:30:47.064Z,4.97
2022-11-03T18:33:34.614Z,6.65
2022-11-03T18:36:06.555Z,7.25
2022-11-03T18:38:36.391Z,7.82
2022-11-03T18:41:23.049Z,9.10
2022-11-03T18:43:49.627Z,6.75
2022-11-03T18:46:16.211Z,5.30
2022-11-03T18:48:42.786Z,5.53
2022-11-03T18:51:09.583Z,4.20
2022-11-03T18:53:36.174Z,10.68
2022-11-03T18:56:02.777Z,7.68
2022-11-03T18:58:29.402Z,5.35
2022-11-03T19:00:56.077Z,4.55
2022-11-03T19:03:23.477Z,5.88
2022-11-03T19:05:52.659Z,2.67
2022-11-03T19:08:29.856Z,4.43
2022-11-03T19:10:57.183Z,3.45
2022-11-03T19:13:36.424Z,4.70
2022-11-03T19:16:15.058Z,4.65
2022-11-03T19:18:42.608Z,2.92
2022-11-03T19:21:14.026Z,5.68
2022-11-03T19:23:40.742Z,4.70
2022-11-03T19:26:15.928Z,5.35
2022-11-03T19:28:42.800Z,4.75
2022-11-03T19:31:20.048Z,5.45
2022-11-03T19:33:47.880Z,3.88
2022-11-03T19:36:14.673Z,4.32
2022-11-03T19:38:41.319Z,4.18
2022-11-03T19:41:35.692Z,4.63
2022-11-03T19:44:05.700Z,4.30
2022-11-03T19:46:33.039Z,4.32
2022-11-03T19:49:00.274Z,4.05
2022-11-03T19:51:29.526Z,3.13
2022-11-03T19:53:57.414Z,3.47
2022-11-03T19:56:24.507Z,4.15
2022-11-03T19:58:51.101Z,4.35
2022-11-03T20:01:17.947Z,4.97
2022-11-03T20:03:44.837Z,4.85
2022-11-03T20:06:16.660Z,6.43
2022-11-03T20:08:47.200Z,4.95
2022-11-03T20:11:13.785Z,4.55
2022-11-03T20:13:42.373Z,4.63
2022-11-03T20:16:18.144Z,4.25
2022-11-03T20:18:44.711Z,6.00
2022-11-03T20:21:15.749Z,5.80
2022-11-03T20:23:43.417Z,5.25
2022-11-03T20:26:15.482Z,4.55
2022-11-03T20:28:42.241Z,3.80
2022-11-03T20:31:08.851Z,5.22
2022-11-03T20:33:36.063Z,5.63
2022-11-03T20:36:04.298Z,4.82
2022-11-03T20:38:31.823Z,3.80
2022-11-03T20:41:03.457Z,3.85
2022-11-03T20:43:43.145Z,4.20
2022-11-03T20:46:27.767Z,8.98
2022-11-03T20:48:55.431Z,5.88
2022-11-03T20:51:24.972Z,4.95
2022-11-03T20:53:51.973Z,4.45
2022-11-03T20:56:21.228Z,4.40
2022-11-03T20:58:48.172Z,4.80
2022-11-03T21:01:24.736Z,5.00
2022-11-03T21:04:00.211Z,3.50
2022-11-03T21:06:28.800Z,5.30
2022-11-03T21:08:55.564Z,4.18
2022-11-03T21:11:24.359Z,4.82
2022-11-03T21:13:53.198Z,5.55
2022-11-03T21:16:38.792Z,4.15
2022-11-03T21:19:37.149Z,4.20
2022-11-03T21:22:30.949Z,4.35
2022-11-03T21:25:00.454Z,4.55
2022-11-03T21:27:27.021Z,3.85
2022-11-03T21:29:59.407Z,4.22
2022-11-03T21:32:26.870Z,5.57
2022-11-03T21:34:53.445Z,5.07
2022-11-03T21:37:20.280Z,5.40
2022-11-03T21:39:47.390Z,3.80
2022-11-03T21:42:34.166Z,4.43
2022-11-03T21:45:01.009Z,5.53
2022-11-03T21:47:28.224Z,5.03
2022-11-03T21:49:54.893Z,6.75
2022-11-03T21:52:31.570Z,4.57
2022-11-03T21:54:59.713Z,5.20
2022-11-03T21:57:26.511Z,4.53
2022-11-03T21:59:53.210Z,3.92
2022-11-03T22:02:19.973Z,4.13
2022-11-03T22:04:46.783Z,5.28
2022-11-03T22:07:13.396Z,4.30
2022-11-03T22:09:39.937Z,5.40
2022-11-03T22:12:07.056Z,5.93
2022-11-03T22:14:53.917Z,5.28
2022-11-03T22:17:20.637Z,5.15
2022-11-03T22:20:05.691Z,5.50
2022-11-03T22:22:51.300Z,5.45
2022-11-03T22:25:36.606Z,5.82
2022-11-03T22:28:03.269Z,4.70
2022-11-03T22:30:48.336Z,5.68
2022-11-03T22:33:14.948Z,5.60
2022-11-03T22:36:00.110Z,6.15
2022-11-03T22:38:45.513Z,4.82
2022-11-03T22:41:30.997Z,4.38
2022-11-03T22:44:16.447Z,4.93
2022-11-03T22:46:43.121Z,3.55
2022-11-03T22:49:09.751Z,5.70
2022-11-03T22:51:36.870Z,5.78
2022-11-03T22:54:12.494Z,5.72
2022-11-03T22:56:39.928Z,5.05
2022-11-03T22:59:08.037Z,5.57
2022-11-03T23:01:35.265Z,4.97
2022-11-03T23:04:02.005Z,6.75
2022-11-03T23:06:33.851Z,5.75
2022-11-03T23:09:01.312Z,6.60
2022-11-03T23:13:40.721Z,3.53
2022-11-03T23:16:16.267Z,4.10
2022-11-03T23:19:06.207Z,5.97
2022-11-03T23:21:34.457Z,5.15
2022-11-03T23:24:19.947Z,6.32
2022-11-03T23:26:47.346Z,4.45
2022-11-03T23:29:14.687Z,4.88
2022-11-03T23:31:43.181Z,4.88
2022-11-03T23:34:11.139Z,5.70
2022-11-03T23:36:38.001Z,5.20
2022-11-03T23:39:06.230Z,5.70
2022-11-03T23:41:33.293Z,6.53
2022-11-03T23:43:59.877Z,5.70
2022-11-03T23:46:46.944Z,5.97
2022-11-03T23:49:14.520Z,6.13
2022-11-03T23:51:44.476Z,5.95
2022-11-03T23:54:12.654Z,6.60
2022-11-03T23:57:00.088Z,7.18
2022-11-03T23:59:27.779Z,4.50
